sensor_id;sensor_type;location;lat;lon;timestamp;pressure;altitude;pressure_sealevel;temperature;humidity
74232;BME280;62590;52.430;4.902;2022-10-31T00:00:49;101783.50;;;11.84;67.66
74232;BME280;62590;52.430;4.902;2022-10-31T00:03:15;101786.31;;;11.82;67.65
74232;BME280;62590;52.430;4.902;2022-10-31T00:05:43;101791.78;;;11.81;67.64
74232;BME280;62590;52.430;4.902;2022-10-31T00:08:09;101792.78;;;11.68;67.65
74232;BME280;62590;52.430;4.902;2022-10-31T00:10:37;101784.59;;;11.70;67.64
74232;BME280;62590;52.430;4.902;2022-10-31T00:13:02;101790.78;;;11.59;67.63
74232;BME280;62590;52.430;4.902;2022-10-31T00:15:28;101779.91;;;11.61;67.63
74232;BME280;62590;52.430;4.902;2022-10-31T00:17:53;101783.06;;;11.55;67.64
74232;BME280;62590;52.430;4.902;2022-10-31T00:20:18;101799.25;;;11.66;67.64
74232;BME280;62590;52.430;4.902;2022-10-31T00:22:44;101792.19;;;11.76;67.65
74232;BME280;62590;52.430;4.902;2022-10-31T00:25:09;101784.72;;;11.68;67.65
74232;BME280;62590;52.430;4.902;2022-10-31T00:27:34;101796.03;;;11.61;67.63
74232;BME280;62590;52.430;4.902;2022-10-31T00:30:00;101779.16;;;11.48;67.62
74232;BME280;62590;52.430;4.902;2022-10-31T00:32:28;101793.22;;;11.62;67.63
74232;BME280;62590;52.430;4.902;2022-10-31T00:34:54;101791.88;;;11.57;67.64
74232;BME280;62590;52.430;4.902;2022-10-31T00:37:19;101793.22;;;11.51;67.64
74232;BME280;62590;52.430;4.902;2022-10-31T00:39:44;101793.06;;;11.42;67.63
74232;BME280;62590;52.430;4.902;2022-10-31T00:42:10;101784.53;;;11.48;67.62
74232;BME280;62590;52.430;4.902;2022-10-31T00:44:35;101791.72;;;11.47;67.63
74232;BME280;62590;52.430;4.902;2022-10-31T00:47:01;101792.69;;;11.35;67.62
74232;BME280;62590;52.430;4.902;2022-10-31T00:49:26;101785.13;;;11.40;67.62
74232;BME280;62590;52.430;4.902;2022-10-31T00:51:51;101793.81;;;11.44;67.62
74232;BME280;62590;52.430;4.902;2022-10-31T00:54:17;101801.63;;;11.47;67.62
74232;BME280;62590;52.430;4.902;2022-10-31T00:56:42;101798.34;;;11.54;67.63
74232;BME280;62590;52.430;4.902;2022-10-31T00:59:07;101802.00;;;11.53;67.63
74232;BME280;62590;52.430;4.902;2022-10-31T01:01:33;101799.31;;;11.42;67.62
74232;BME280;62590;52.430;4.902;2022-10-31T01:03:58;101784.88;;;11.43;67.63
74232;BME280;62590;52.430;4.902;2022-10-31T01:06:23;101780.97;;;11.36;67.62
74232;BME280;62590;52.430;4.902;2022-10-31T01:08:49;101790.75;;;11.37;67.62
74232;BME280;62590;52.430;4.902;2022-10-31T01:11:22;101802.81;;;11.32;67.61
74232;BME280;62590;52.430;4.902;2022-10-31T01:13:50;101803.69;;;11.43;67.62
74232;BME280;62590;52.430;4.902;2022-10-31T01:16:18;101801.97;;;11.31;67.62
74232;BME280;62590;52.430;4.902;2022-10-31T01:18:45;101800.75;;;11.35;67.62
74232;BME280;62590;52.430;4.902;2022-10-31T01:21:13;101804.53;;;11.33;67.61
74232;BME280;62590;52.430;4.902;2022-10-31T01:23:39;101794.13;;;11.28;67.60
74232;BME280;62590;52.430;4.902;2022-10-31T01:28:39;101784.59;;;11.24;67.61
74232;BME280;62590;52.430;4.902;2022-10-31T01:31:08;101789.97;;;11.24;67.61
74232;BME280;62590;52.430;4.902;2022-10-31T01:33:35;101789.22;;;11.11;67.60
74232;BME280;62590;52.430;4.902;2022-10-31T01:36:00;101778.59;;;11.21;67.62
74232;BME280;62590;52.430;4.902;2022-10-31T01:38:26;101778.59;;;11.21;67.62
74232;BME280;62590;52.430;4.902;2022-10-31T01:40:52;101780.09;;;11.36;67.62
74232;BME280;62590;52.430;4.902;2022-10-31T01:43:18;101781.81;;;11.26;67.61
74232;BME280;62590;52.430;4.902;2022-10-31T01:45:49;101779.34;;;11.34;67.62
74232;BME280;62590;52.430;4.902;2022-10-31T01:48:18;101775.44;;;11.27;67.61
74232;BME280;62590;52.430;4.902;2022-10-31T01:50:46;101770.94;;;11.27;67.61
74232;BME280;62590;52.430;4.902;2022-10-31T01:53:15;101769.88;;;11.06;67.60
74232;BME280;62590;52.430;4.902;2022-10-31T01:55:44;101764.19;;;11.22;67.60
74232;BME280;62590;52.430;4.902;2022-10-31T01:58:16;101766.50;;;11.26;67.61
74232;BME280;62590;52.430;4.902;2022-10-31T02:00:46;101762.75;;;11.29;67.62
74232;BME280;62590;52.430;4.902;2022-10-31T02:03:15;101763.59;;;11.18;67.61
74232;BME280;62590;52.430;4.902;2022-10-31T02:05:42;101771.41;;;11.21;67.60
74232;BME280;62590;52.430;4.902;2022-10-31T02:08:18;101767.22;;;11.17;67.60
74232;BME280;62590;52.430;4.902;2022-10-31T02:10:45;101767.97;;;11.19;67.60
74232;BME280;62590;52.430;4.902;2022-10-31T02:13:11;101776.16;;;11.18;67.61
74232;BME280;62590;52.430;4.902;2022-10-31T02:15:38;101771.97;;;11.14;67.59
74232;BME280;62590;52.430;4.902;2022-10-31T02:18:05;101778.84;;;11.18;67.60
74232;BME280;62590;52.430;4.902;2022-10-31T02:23:50;101780.25;;;11.00;67.59
74232;BME280;62590;52.430;4.902;2022-10-31T02:36:58;101775.19;;;11.19;67.60
74232;BME280;62590;52.430;4.902;2022-10-31T02:39:57;101777.72;;;11.09;67.61
74232;BME280;62590;52.430;4.902;2022-10-31T02:42:40;101774.06;;;11.10;67.60
74232;BME280;62590;52.430;4.902;2022-10-31T02:48:01;101776.38;;;11.04;67.59
74232;BME280;62590;52.430;4.902;2022-10-31T02:50:32;101774.44;;;11.17;67.60
74232;BME280;62590;52.430;4.902;2022-10-31T02:52:58;101775.34;;;10.94;67.58
74232;BME280;62590;52.430;4.902;2022-10-31T02:57:50;101768.16;;;10.94;67.59
74232;BME280;62590;52.430;4.902;2022-10-31T03:00:17;101778.81;;;11.07;67.59
74232;BME280;62590;52.430;4.902;2022-10-31T03:15:46;101769.47;;;10.65;67.56
74232;BME280;62590;52.430;4.902;2022-10-31T03:18:29;101778.94;;;10.58;67.55
74232;BME280;62590;52.430;4.902;2022-10-31T03:21:20;101777.63;;;10.63;67.56
74232;BME280;62590;52.430;4.902;2022-10-31T03:23:49;101781.47;;;10.72;67.56
74232;BME280;62590;52.430;4.902;2022-10-31T03:26:16;101778.88;;;10.70;67.57
74232;BME280;62590;52.430;4.902;2022-10-31T03:28:52;101780.00;;;10.68;67.55
74232;BME280;62590;52.430;4.902;2022-10-31T03:31:22;101767.84;;;10.51;67.55
74232;BME280;62590;52.430;4.902;2022-10-31T03:33:51;101776.53;;;10.42;67.55
74232;BME280;62590;52.430;4.902;2022-10-31T03:36:17;101767.22;;;10.48;67.54
74232;BME280;62590;52.430;4.902;2022-10-31T03:38:45;101769.16;;;10.46;67.54
74232;BME280;62590;52.430;4.902;2022-10-31T03:41:16;101778.91;;;10.47;67.55
74232;BME280;62590;52.430;4.902;2022-10-31T03:43:54;101770.53;;;10.39;67.56
74232;BME280;62590;52.430;4.902;2022-10-31T03:46:21;101780.44;;;10.38;67.55
74232;BME280;62590;52.430;4.902;2022-10-31T03:48:47;101783.31;;;10.35;67.54
74232;BME280;62590;52.430;4.902;2022-10-31T03:54:10;101785.38;;;10.32;67.54
74232;BME280;62590;52.430;4.902;2022-10-31T03:59:19;101786.84;;;10.12;67.53
74232;BME280;62590;52.430;4.902;2022-10-31T04:01:50;101784.91;;;10.14;67.53
74232;BME280;62590;52.430;4.902;2022-10-31T04:04:19;101771.72;;;9.99;67.51
74232;BME280;62590;52.430;4.902;2022-10-31T04:06:45;101784.56;;;10.06;67.52
74232;BME280;62590;52.430;4.902;2022-10-31T04:09:12;101793.38;;;9.96;67.52
74232;BME280;62590;52.430;4.902;2022-10-31T04:11:44;101787.34;;;9.92;67.52
74232;BME280;62590;52.430;4.902;2022-10-31T04:14:11;101784.28;;;9.86;67.51
74232;BME280;62590;52.430;4.902;2022-10-31T04:16:38;101786.31;;;9.82;67.51
74232;BME280;62590;52.430;4.902;2022-10-31T04:19:06;101785.34;;;9.83;67.51
74232;BME280;62590;52.430;4.902;2022-10-31T04:21:31;101788.56;;;9.75;67.50
74232;BME280;62590;52.430;4.902;2022-10-31T04:23:57;101797.25;;;9.79;67.50
74232;BME280;62590;52.430;4.902;2022-10-31T04:26:23;101796.28;;;9.80;67.50
74232;BME280;62590;52.430;4.902;2022-10-31T04:28:48;101795.66;;;9.64;67.49
74232;BME280;62590;52.430;4.902;2022-10-31T04:31:14;101802.97;;;9.62;67.50
74232;BME280;62590;52.430;4.902;2022-10-31T04:33:39;101802.09;;;9.61;67.50
74232;BME280;62590;52.430;4.902;2022-10-31T04:36:04;101803.72;;;9.64;67.48
74232;BME280;62590;52.430;4.902;2022-10-31T04:38:30;101793.06;;;9.62;67.49
74232;BME280;62590;52.430;4.902;2022-10-31T04:40:55;101795.88;;;9.48;67.48
74232;BME280;62590;52.430;4.902;2022-10-31T04:43:21;101803.56;;;9.53;67.47
74232;BME280;62590;52.430;4.902;2022-10-31T04:45:46;101798.66;;;9.47;67.47
74232;BME280;62590;52.430;4.902;2022-10-31T04:48:12;101799.59;;;9.46;67.46
74232;BME280;62590;52.430;4.902;2022-10-31T04:50:37;101801.97;;;9.38;67.46
74232;BME280;62590;52.430;4.902;2022-10-31T04:53:03;101806.25;;;9.40;67.47
74232;BME280;62590;52.430;4.902;2022-10-31T04:55:28;101791.97;;;9.27;67.45
74232;BME280;62590;52.430;4.902;2022-10-31T04:57:53;101806.25;;;9.40;67.47
74232;BME280;62590;52.430;4.902;2022-10-31T05:00:21;101800.47;;;9.34;67.46
74232;BME280;62590;52.430;4.902;2022-10-31T05:02:54;101800.03;;;9.27;67.45
74232;BME280;62590;52.430;4.902;2022-10-31T05:05:22;101797.44;;;9.26;67.45
74232;BME280;62590;52.430;4.902;2022-10-31T05:07:48;101793.47;;;9.19;67.44
74232;BME280;62590;52.430;4.902;2022-10-31T05:10:17;101789.06;;;9.18;67.45
74232;BME280;62590;52.430;4.902;2022-10-31T05:13:03;101784.81;;;9.15;67.45
74232;BME280;62590;52.430;4.902;2022-10-31T05:15:28;101782.66;;;9.20;67.45
74232;BME280;62590;52.430;4.902;2022-10-31T05:17:54;101779.53;;;9.14;67.44
74232;BME280;62590;52.430;4.902;2022-10-31T05:20:22;101780.28;;;9.16;67.45
74232;BME280;62590;52.430;4.902;2022-10-31T05:22:50;101774.19;;;9.14;67.44
74232;BME280;62590;52.430;4.902;2022-10-31T05:25:17;101774.91;;;9.03;67.45
74232;BME280;62590;52.430;4.902;2022-10-31T05:27:44;101778.13;;;9.08;67.44
74232;BME280;62590;52.430;4.902;2022-10-31T05:30:12;101774.28;;;9.00;67.44
74232;BME280;62590;52.430;4.902;2022-10-31T05:32:46;101778.75;;;8.99;67.44
74232;BME280;62590;52.430;4.902;2022-10-31T05:35:14;101773.75;;;9.07;67.44
74232;BME280;62590;52.430;4.902;2022-10-31T05:37:40;101769.13;;;8.97;67.44
74232;BME280;62590;52.430;4.902;2022-10-31T05:40:07;101769.31;;;8.81;67.42
74232;BME280;62590;52.430;4.902;2022-10-31T05:42:33;101767.03;;;8.75;67.43
74232;BME280;62590;52.430;4.902;2022-10-31T05:44:59;101760.00;;;8.87;67.43
74232;BME280;62590;52.430;4.902;2022-10-31T05:47:24;101753.78;;;8.86;67.43
74232;BME280;62590;52.430;4.902;2022-10-31T05:49:50;101759.63;;;8.66;67.41
74232;BME280;62590;52.430;4.902;2022-10-31T05:52:15;101761.38;;;8.79;67.42
74232;BME280;62590;52.430;4.902;2022-10-31T05:54:41;101747.28;;;9.03;67.45
74232;BME280;62590;52.430;4.902;2022-10-31T05:57:06;101754.25;;;9.05;67.44
74232;BME280;62590;52.430;4.902;2022-10-31T05:59:31;101759.25;;;8.97;67.43
74232;BME280;62590;52.430;4.902;2022-10-31T06:01:57;101743.53;;;8.93;67.43
74232;BME280;62590;52.430;4.902;2022-10-31T06:04:22;101744.81;;;9.00;67.44
74232;BME280;62590;52.430;4.902;2022-10-31T06:06:47;101739.59;;;8.98;67.44
74232;BME280;62590;52.430;4.902;2022-10-31T06:09:13;101748.78;;;8.94;67.42
74232;BME280;62590;52.430;4.902;2022-10-31T06:11:38;101742.66;;;8.79;67.42
74232;BME280;62590;52.430;4.902;2022-10-31T06:14:04;101751.69;;;8.91;67.43
74232;BME280;62590;52.430;4.902;2022-10-31T06:16:30;101753.47;;;8.78;67.42
74232;BME280;62590;52.430;4.902;2022-10-31T06:18:55;101758.50;;;8.82;67.43
74232;BME280;62590;52.430;4.902;2022-10-31T06:21:21;101765.22;;;8.75;67.42
74232;BME280;62590;52.430;4.902;2022-10-31T06:23:46;101768.66;;;8.77;67.42
74232;BME280;62590;52.430;4.902;2022-10-31T06:26:11;101748.91;;;8.66;67.42
74232;BME280;62590;52.430;4.902;2022-10-31T06:28:37;101755.50;;;8.74;67.43
74232;BME280;62590;52.430;4.902;2022-10-31T06:31:02;101759.22;;;8.72;67.42
74232;BME280;62590;52.430;4.902;2022-10-31T06:33:27;101750.53;;;8.68;67.41
74232;BME280;62590;52.430;4.902;2022-10-31T06:35:53;101747.97;;;8.67;67.41
74232;BME280;62590;52.430;4.902;2022-10-31T06:38:18;101753.41;;;8.65;67.42
74232;BME280;62590;52.430;4.902;2022-10-31T06:40:43;101757.16;;;8.63;67.41
74232;BME280;62590;52.430;4.902;2022-10-31T06:43:09;101755.03;;;8.68;67.40
74232;BME280;62590;52.430;4.902;2022-10-31T06:45:36;101761.91;;;8.72;67.42
74232;BME280;62590;52.430;4.902;2022-10-31T06:48:02;101755.13;;;8.66;67.41
74232;BME280;62590;52.430;4.902;2022-10-31T06:50:28;101760.50;;;8.66;67.40
74232;BME280;62590;52.430;4.902;2022-10-31T06:52:57;101762.19;;;8.67;67.40
74232;BME280;62590;52.430;4.902;2022-10-31T06:55:24;101760.28;;;8.69;67.42
74232;BME280;62590;52.430;4.902;2022-10-31T06:57:54;101766.59;;;8.68;67.41
74232;BME280;62590;52.430;4.902;2022-10-31T07:00:21;101755.69;;;8.71;67.42
74232;BME280;62590;52.430;4.902;2022-10-31T07:03:13;101761.25;;;8.68;67.42
74232;BME280;62590;52.430;4.902;2022-10-31T07:05:39;101764.97;;;8.66;67.41
74232;BME280;62590;52.430;4.902;2022-10-31T07:08:07;101761.28;;;8.54;67.41
74232;BME280;62590;52.430;4.902;2022-10-31T07:10:34;101766.03;;;8.63;67.41
74232;BME280;62590;52.430;4.902;2022-10-31T07:13:03;101773.75;;;8.68;67.40
74232;BME280;62590;52.430;4.902;2022-10-31T07:15:32;101770.53;;;8.63;67.41
74232;BME280;62590;52.430;4.902;2022-10-31T07:18:05;101779.31;;;8.65;67.41
74232;BME280;62590;52.430;4.902;2022-10-31T07:20:31;101771.59;;;8.60;67.40
74232;BME280;62590;52.430;4.902;2022-10-31T07:22:57;101783.16;;;8.61;67.42
74232;BME280;62590;52.430;4.902;2022-10-31T07:25:24;101768.38;;;8.55;67.40
74232;BME280;62590;52.430;4.902;2022-10-31T07:27:49;101779.09;;;8.68;67.42
74232;BME280;62590;52.430;4.902;2022-10-31T07:30:15;101768.81;;;8.62;67.40
74232;BME280;62590;52.430;4.902;2022-10-31T07:32:44;101780.91;;;8.67;67.40
74232;BME280;62590;52.430;4.902;2022-10-31T07:35:12;101765.59;;;8.57;67.41
74232;BME280;62590;52.430;4.902;2022-10-31T07:37:38;101781.16;;;8.77;67.42
74232;BME280;62590;52.430;4.902;2022-10-31T07:40:05;101788.00;;;8.68;67.41
74232;BME280;62590;52.430;4.902;2022-10-31T07:42:35;101786.66;;;8.88;67.43
74232;BME280;62590;52.430;4.902;2022-10-31T07:45:01;101785.72;;;8.89;67.43
74232;BME280;62590;52.430;4.902;2022-10-31T07:47:26;101783.34;;;8.97;67.44
74232;BME280;62590;52.430;4.902;2022-10-31T07:49:51;101782.97;;;9.16;67.45
74232;BME280;62590;52.430;4.902;2022-10-31T07:52:17;101793.91;;;9.13;67.44
74232;BME280;62590;52.430;4.902;2022-10-31T07:54:42;101796.69;;;9.36;67.47
74232;BME280;62590;52.430;4.902;2022-10-31T07:57:07;101803.78;;;9.37;67.46
74232;BME280;62590;52.430;4.902;2022-10-31T07:59:33;101800.03;;;9.40;67.47
74232;BME280;62590;52.430;4.902;2022-10-31T08:01:58;101799.63;;;9.58;67.48
74232;BME280;62590;52.430;4.902;2022-10-31T08:04:23;101796.50;;;9.64;67.48
74232;BME280;62590;52.430;4.902;2022-10-31T08:06:49;101798.75;;;9.70;67.49
74232;BME280;62590;52.430;4.902;2022-10-31T08:09:14;101789.09;;;9.68;67.50
74232;BME280;62590;52.430;4.902;2022-10-31T08:11:39;101785.06;;;9.75;67.50
74232;BME280;62590;52.430;4.902;2022-10-31T08:14:05;101776.53;;;9.81;67.49
74232;BME280;62590;52.430;4.902;2022-10-31T08:16:30;101779.44;;;9.91;67.51
74232;BME280;62590;52.430;4.902;2022-10-31T08:18:56;101772.03;;;9.94;67.50
74232;BME280;62590;52.430;4.902;2022-10-31T08:21:22;101781.69;;;9.97;67.51
74232;BME280;62590;52.430;4.902;2022-10-31T08:23:47;101782.31;;;10.00;67.51
74232;BME280;62590;52.430;4.902;2022-10-31T08:26:12;101782.00;;;10.05;67.51
74232;BME280;62590;52.430;4.902;2022-10-31T08:28:38;101776.09;;;10.00;67.51
74232;BME280;62590;52.430;4.902;2022-10-31T08:31:03;101778.44;;;10.04;67.51
74232;BME280;62590;52.430;4.902;2022-10-31T08:33:30;101771.16;;;10.19;67.53
74232;BME280;62590;52.430;4.902;2022-10-31T08:35:57;101782.06;;;10.28;67.54
74232;BME280;62590;52.430;4.902;2022-10-31T08:38:23;101774.94;;;10.40;67.53
74232;BME280;62590;52.430;4.902;2022-10-31T08:40:48;101770.03;;;10.34;67.53
74232;BME280;62590;52.430;4.902;2022-10-31T08:43:15;101775.66;;;10.54;67.54
74232;BME280;62590;52.430;4.902;2022-10-31T08:45:42;101785.50;;;10.54;67.55
74232;BME280;62590;52.430;4.902;2022-10-31T08:48:16;101784.75;;;10.52;67.55
74232;BME280;62590;52.430;4.902;2022-10-31T08:50:42;101766.78;;;10.41;67.53
74232;BME280;62590;52.430;4.902;2022-10-31T08:53:18;101774.94;;;10.63;67.57
74232;BME280;62590;52.430;4.902;2022-10-31T08:55:45;101764.72;;;10.68;67.57
74232;BME280;62590;52.430;4.902;2022-10-31T08:58:14;101757.56;;;10.80;67.58
74232;BME280;62590;52.430;4.902;2022-10-31T09:00:40;101765.97;;;10.99;67.59
74232;BME280;62590;52.430;4.902;2022-10-31T09:03:10;101764.25;;;10.98;67.58
74232;BME280;62590;52.430;4.902;2022-10-31T09:05:36;101766.22;;;10.96;67.59
74232;BME280;62590;52.430;4.902;2022-10-31T09:08:03;101760.31;;;10.91;67.58
74232;BME280;62590;52.430;4.902;2022-10-31T09:10:30;101759.97;;;10.96;67.59
74232;BME280;62590;52.430;4.902;2022-10-31T09:15:21;101754.13;;;11.02;67.58
74232;BME280;62590;52.430;4.902;2022-10-31T09:17:47;101735.78;;;10.85;67.58
74232;BME280;62590;52.430;4.902;2022-10-31T09:20:13;101741.66;;;11.01;67.59
74232;BME280;62590;52.430;4.902;2022-10-31T09:22:38;101733.97;;;10.96;67.58
74232;BME280;62590;52.430;4.902;2022-10-31T09:25:04;101747.59;;;11.17;67.59
74232;BME280;62590;52.430;4.902;2022-10-31T09:27:29;101742.56;;;11.12;67.59
74232;BME280;62590;52.430;4.902;2022-10-31T09:29:54;101743.94;;;11.29;67.62
74232;BME280;62590;52.430;4.902;2022-10-31T09:32:20;101743.91;;;11.18;67.60
74232;BME280;62590;52.430;4.902;2022-10-31T09:34:45;101739.78;;;11.25;67.60
74232;BME280;62590;52.430;4.902;2022-10-31T09:37:10;101734.06;;;11.40;67.62
74232;BME280;62590;52.430;4.902;2022-10-31T09:39:36;101721.84;;;11.47;67.62
74232;BME280;62590;52.430;4.902;2022-10-31T09:42:10;101727.00;;;11.50;67.62
74232;BME280;62590;52.430;4.902;2022-10-31T09:47:38;101706.13;;;11.76;67.65
74232;BME280;62590;52.430;4.902;2022-10-31T09:50:14;101710.28;;;11.80;67.64
74232;BME280;62590;52.430;4.902;2022-10-31T09:52:45;101709.88;;;11.96;67.66
74232;BME280;62590;52.430;4.902;2022-10-31T09:55:16;101704.50;;;12.07;67.67
74232;BME280;62590;52.430;4.902;2022-10-31T09:57:44;101697.84;;;12.22;67.67
74232;BME280;62590;52.430;4.902;2022-10-31T10:00:16;101692.13;;;12.15;67.67
74232;BME280;62590;52.430;4.902;2022-10-31T10:03:05;101694.22;;;12.12;67.67
74232;BME280;62590;52.430;4.902;2022-10-31T10:05:49;101693.66;;;12.29;67.68
74232;BME280;62590;52.430;4.902;2022-10-31T10:08:19;101701.09;;;12.36;67.69
74232;BME280;62590;52.430;4.902;2022-10-31T10:10:51;101699.28;;;12.37;67.70
74232;BME280;62590;52.430;4.902;2022-10-31T10:16:16;101680.94;;;12.31;67.69
74232;BME280;62590;52.430;4.902;2022-10-31T10:25:01;101684.00;;;12.37;67.69
74232;BME280;62590;52.430;4.902;2022-10-31T10:30:21;101675.38;;;12.54;67.70
74232;BME280;62590;52.430;4.902;2022-10-31T10:32:50;101670.44;;;12.59;67.70
74232;BME280;62590;52.430;4.902;2022-10-31T10:35:30;101661.00;;;12.65;67.72
74232;BME280;62590;52.430;4.902;2022-10-31T10:38:22;101657.06;;;12.69;67.71
74232;BME280;62590;52.430;4.902;2022-10-31T10:40:50;101643.00;;;12.65;67.70
74232;BME280;62590;52.430;4.902;2022-10-31T10:54:56;101630.88;;;13.42;67.77
74232;BME280;62590;52.430;4.902;2022-10-31T11:02:43;101616.16;;;13.26;67.75
74232;BME280;62590;52.430;4.902;2022-10-31T11:07:58;101603.72;;;13.34;67.75
74232;BME280;62590;52.430;4.902;2022-10-31T11:10:23;101598.38;;;13.44;67.75
74232;BME280;62590;52.430;4.902;2022-10-31T11:13:06;101594.06;;;13.72;67.79
74232;BME280;62590;52.430;4.902;2022-10-31T11:15:36;101589.53;;;13.82;67.80
74232;BME280;62590;52.430;4.902;2022-10-31T11:18:04;101574.53;;;14.08;67.82
74232;BME280;62590;52.430;4.902;2022-10-31T11:20:35;101581.03;;;13.96;67.80
74232;BME280;62590;52.430;4.902;2022-10-31T11:23:19;101568.13;;;14.09;67.82
74232;BME280;62590;52.430;4.902;2022-10-31T11:25:58;101558.88;;;13.92;67.80
74232;BME280;62590;52.430;4.902;2022-10-31T11:28:26;101555.03;;;13.76;67.79
74232;BME280;62590;52.430;4.902;2022-10-31T11:31:05;101564.38;;;13.72;67.80
74232;BME280;62590;52.430;4.902;2022-10-31T11:33:37;101558.81;;;13.63;67.77
74232;BME280;62590;52.430;4.902;2022-10-31T11:36:26;101564.38;;;13.62;67.78
74232;BME280;62590;52.430;4.902;2022-10-31T11:38:52;101564.75;;;13.57;67.77
74232;BME280;62590;52.430;4.902;2022-10-31T11:41:19;101557.97;;;13.53;67.77
74232;BME280;62590;52.430;4.902;2022-10-31T11:46:35;101542.19;;;13.49;67.76
74232;BME280;62590;52.430;4.902;2022-10-31T11:49:03;101550.00;;;13.52;67.77
74232;BME280;62590;52.430;4.902;2022-10-31T11:51:32;101545.75;;;13.49;67.77
74232;BME280;62590;52.430;4.902;2022-10-31T11:53:59;101551.00;;;13.51;67.77
74232;BME280;62590;52.430;4.902;2022-10-31T11:56:27;101542.34;;;13.47;67.76
74232;BME280;62590;52.430;4.902;2022-10-31T11:59:15;101547.06;;;13.65;67.79
74232;BME280;62590;52.430;4.902;2022-10-31T12:01:47;101535.00;;;13.69;67.78
74232;BME280;62590;52.430;4.902;2022-10-31T12:04:13;101511.00;;;13.75;67.79
74232;BME280;62590;52.430;4.902;2022-10-31T12:06:40;101520.97;;;14.22;67.82
74232;BME280;62590;52.430;4.902;2022-10-31T12:09:23;101515.47;;;14.70;67.85
74232;BME280;62590;52.430;4.902;2022-10-31T12:40:18;101474.31;;;14.49;67.84
74232;BME280;62590;52.430;4.902;2022-10-31T12:45:42;101450.06;;;15.03;67.88
74232;BME280;62590;52.430;4.902;2022-10-31T12:54:02;101439.16;;;14.68;67.86
74232;BME280;62590;52.430;4.902;2022-10-31T12:56:39;101440.97;;;14.68;67.86
74232;BME280;62590;52.430;4.902;2022-10-31T12:59:09;101435.50;;;14.60;67.85
74232;BME280;62590;52.430;4.902;2022-10-31T13:01:44;101422.19;;;14.76;67.86
74232;BME280;62590;52.430;4.902;2022-10-31T13:04:54;101411.78;;;15.08;67.88
74232;BME280;62590;52.430;4.902;2022-10-31T13:07:07;101391.50;;;15.21;67.90
74232;BME280;62590;52.430;4.902;2022-10-31T13:09:40;101384.75;;;15.25;67.89
74232;BME280;62590;52.430;4.902;2022-10-31T13:12:11;101377.72;;;15.42;67.91
74232;BME280;62590;52.430;4.902;2022-10-31T13:17:04;101350.44;;;15.53;67.90
74232;BME280;62590;52.430;4.902;2022-10-31T13:19:34;101355.19;;;15.59;67.92
74232;BME280;62590;52.430;4.902;2022-10-31T13:22:14;101351.66;;;15.23;67.89
74232;BME280;62590;52.430;4.902;2022-10-31T13:27:24;101336.47;;;14.95;67.87
74232;BME280;62590;52.430;4.902;2022-10-31T13:30:10;101339.25;;;14.86;67.86
74232;BME280;62590;52.430;4.902;2022-10-31T13:38:48;101334.00;;;14.57;67.84
74232;BME280;62590;52.430;4.902;2022-10-31T13:44:05;101336.00;;;14.55;67.85
74232;BME280;62590;52.430;4.902;2022-10-31T13:46:37;101335.66;;;14.40;67.84
74232;BME280;62590;52.430;4.902;2022-10-31T13:49:03;101326.03;;;14.28;67.82
74232;BME280;62590;52.430;4.902;2022-10-31T13:51:33;101315.50;;;14.25;67.83
74232;BME280;62590;52.430;4.902;2022-10-31T13:54:23;101307.25;;;14.36;67.83
74232;BME280;62590;52.430;4.902;2022-10-31T13:56:52;101297.91;;;14.31;67.83
74232;BME280;62590;52.430;4.902;2022-10-31T13:59:21;101292.06;;;14.35;67.83
74232;BME280;62590;52.430;4.902;2022-10-31T14:01:53;101293.19;;;14.33;67.83
74232;BME280;62590;52.430;4.902;2022-10-31T14:10:05;101284.25;;;14.23;67.82
74232;BME280;62590;52.430;4.902;2022-10-31T14:12:38;101285.69;;;14.17;67.82
74232;BME280;62590;52.430;4.902;2022-10-31T14:17:38;101283.63;;;14.11;67.81
74232;BME280;62590;52.430;4.902;2022-10-31T14:22:36;101268.69;;;14.17;67.82
74232;BME280;62590;52.430;4.902;2022-10-31T14:25:30;101264.84;;;14.10;67.81
74232;BME280;62590;52.430;4.902;2022-10-31T14:27:57;101256.31;;;14.14;67.81
74232;BME280;62590;52.430;4.902;2022-10-31T14:30:25;101267.16;;;14.05;67.81
74232;BME280;62590;52.430;4.902;2022-10-31T14:33:02;101250.13;;;14.04;67.81
74232;BME280;62590;52.430;4.902;2022-10-31T14:36:03;101248.53;;;14.11;67.80
74232;BME280;62590;52.430;4.902;2022-10-31T14:38:38;101245.69;;;14.13;67.81
74232;BME280;62590;52.430;4.902;2022-10-31T14:44:02;101229.38;;;14.05;67.82
74232;BME280;62590;52.430;4.902;2022-10-31T14:49:39;101217.22;;;13.91;67.81
74232;BME280;62590;52.430;4.902;2022-10-31T14:52:10;101213.78;;;13.99;67.81
74232;BME280;62590;52.430;4.902;2022-10-31T14:54:41;101202.91;;;13.91;67.80
74232;BME280;62590;52.430;4.902;2022-10-31T14:57:19;101198.50;;;13.90;67.80
74232;BME280;62590;52.430;4.902;2022-10-31T14:59:49;101204.91;;;13.89;67.80
74232;BME280;62590;52.430;4.902;2022-10-31T15:04:46;101188.19;;;13.85;67.80
74232;BME280;62590;52.430;4.902;2022-10-31T15:07:22;101186.50;;;13.75;67.79
74232;BME280;62590;52.430;4.902;2022-10-31T15:10:06;101174.94;;;13.65;67.79
74232;BME280;62590;52.430;4.902;2022-10-31T15:12:36;101178.16;;;13.68;67.78
74232;BME280;62590;52.430;4.902;2022-10-31T15:15:17;101174.31;;;13.71;67.79
74232;BME280;62590;52.430;4.902;2022-10-31T15:17:55;101169.38;;;13.66;67.78
74232;BME280;62590;52.430;4.902;2022-10-31T15:20:24;101155.63;;;13.59;67.78
74232;BME280;62590;52.430;4.902;2022-10-31T15:22:51;101147.53;;;13.59;67.78
74232;BME280;62590;52.430;4.902;2022-10-31T15:25:22;101155.03;;;13.66;67.78
74232;BME280;62590;52.430;4.902;2022-10-31T15:27:49;101151.94;;;13.60;67.78
74232;BME280;62590;52.430;4.902;2022-10-31T15:30:20;101146.00;;;13.57;67.79
74232;BME280;62590;52.430;4.902;2022-10-31T15:32:47;101144.59;;;13.53;67.77